PWSweather.com
Personal Weather Stations
Station Observations
TORPERJOSANG
Carretera De Villel SN , MochalesES 19332

Carretera De Villel SN MochalesES 19332

Lat: 41.09957, Lon: -2.012569

Elevation: 3215

Station Type: PSW-20

http://www.torresp.com

High Low Average
Temperature 79.3°F26.3°C 54.9°F12.7°C 65.5°F18.6°C
Dew Point 69.0°F20.6°C 53.3°F11.8°C 57.3°F14.1°C
Winds 19.6 mph 31.5 kmh Calm Calm 4.0 mph S6.4 kmh S
Wind Gusts 27.6 mph44.4 kmh -- 6.0 mph9.7 kmh
Humidity 99% 42% 79%
Pressure 30.09 in1019.0 mb 29.91 in1012.9 mb -
Precipitation 0.24 in6.1 mm - -
Hour Temp Dew Point Humidity Winds Wind Gusts Pressure Precip Precip Rate Daily Precip Total
12:00 AM 59.9°F15.5°C 59.6°F15.3°C 99% 3.5 mph W5.6 kmh W 5.8 mph9.3 kmh 30.06 in1017.9 mb - 0.00 in0.0 mm 0.00 in0.0 mm
12:10 AM 59.7°F15.4°C 59.4°F15.2°C 99% 3.5 mph NW5.6 kmh NW 4.6 mph7.4 kmh 30.06 in1017.9 mb - 0.00 in0.0 mm 0.00 in0.0 mm
12:15 AM 59.9°F15.5°C 59.6°F15.3°C 99% 3.5 mph W5.6 kmh W 4.6 mph7.4 kmh 30.06 in1017.9 mb - 0.00 in0.0 mm 0.00 in0.0 mm
12:20 AM 59.9°F15.5°C 59.6°F15.3°C 99% 2.3 mph W3.7 kmh W 5.8 mph9.3 kmh 30.06 in1017.9 mb - 0.00 in0.0 mm 0.00 in0.0 mm
12:25 AM 59.9°F15.5°C 59.6°F15.3°C 99% 1.2 mph W1.9 kmh W 3.5 mph5.6 kmh 30.06 in1017.9 mb - 0.00 in0.0 mm 0.00 in0.0 mm
12:30 AM 59.7°F15.4°C 59.4°F15.2°C 99% Calm Calm 1.2 mph1.9 kmh 30.06 in1017.9 mb - 0.00 in0.0 mm 0.00 in0.0 mm
12:35 AM 59.6°F15.3°C 59.3°F15.2°C 99% Calm Calm -- 30.06 in1017.9 mb - 0.00 in0.0 mm 0.00 in0.0 mm
12:40 AM 59.5°F15.3°C 59.3°F15.2°C 99% 3.5 mph NW5.6 kmh NW 4.6 mph7.4 kmh 30.06 in1017.9 mb - 0.00 in0.0 mm 0.00 in0.0 mm
12:45 AM 59.5°F15.3°C 59.3°F15.2°C 99% 2.3 mph W3.7 kmh W 3.5 mph5.6 kmh 30.06 in1017.9 mb - 0.00 in0.0 mm 0.00 in0.0 mm
12:50 AM 59.4°F15.2°C 59.1°F15.1°C 99% 2.3 mph NW3.7 kmh NW 3.5 mph5.6 kmh 30.06 in1017.9 mb - 0.00 in0.0 mm 0.00 in0.0 mm
12:55 AM 59.4°F15.2°C 59.1°F15.1°C 99% 3.5 mph W5.6 kmh W 4.6 mph7.4 kmh 30.06 in1017.9 mb - 0.00 in0.0 mm 0.00 in0.0 mm
01:00 AM 59.4°F15.2°C 59.1°F15.1°C 99% Calm Calm -- 30.06 in1017.9 mb - 0.00 in0.0 mm 0.00 in0.0 mm
01:10 AM 59.2°F15.1°C 58.9°F14.9°C 99% 1.2 mph W1.9 kmh W 4.6 mph7.4 kmh 30.06 in1017.9 mb - 0.00 in0.0 mm 0.00 in0.0 mm
01:15 AM 59.0°F15.0°C 58.7°F14.8°C 99% 3.5 mph NW5.6 kmh NW 4.6 mph7.4 kmh 30.06 in1017.9 mb - 0.00 in0.0 mm 0.00 in0.0 mm
01:20 AM 59.0°F15.0°C 58.7°F14.8°C 99% 1.2 mph W1.9 kmh W 3.5 mph5.6 kmh 30.06 in1017.9 mb - 0.00 in0.0 mm 0.00 in0.0 mm
01:25 AM 59.0°F15.0°C 58.7°F14.8°C 99% Calm Calm 3.5 mph5.6 kmh 30.06 in1017.9 mb - 0.00 in0.0 mm 0.00 in0.0 mm
01:30 AM 58.8°F14.9°C 58.5°F14.7°C 99% 2.3 mph W3.7 kmh W 3.5 mph5.6 kmh 30.06 in1017.9 mb - 0.00 in0.0 mm 0.00 in0.0 mm
01:35 AM 58.6°F14.8°C 58.4°F14.7°C 99% 3.5 mph NW5.6 kmh NW 5.8 mph9.3 kmh 30.06 in1017.9 mb - 0.00 in0.0 mm 0.00 in0.0 mm
01:40 AM 58.6°F14.8°C 58.4°F14.7°C 99% Calm Calm -- 30.06 in1017.9 mb - 0.00 in0.0 mm 0.00 in0.0 mm
01:45 AM 58.6°F14.8°C 58.4°F14.7°C 99% 1.2 mph W1.9 kmh W 3.5 mph5.6 kmh 30.06 in1017.9 mb - 0.00 in0.0 mm 0.00 in0.0 mm
01:50 AM 58.6°F14.8°C 58.4°F14.7°C 99% 1.2 mph W1.9 kmh W 3.5 mph5.6 kmh 30.06 in1017.9 mb - 0.00 in0.0 mm 0.00 in0.0 mm
01:55 AM 58.5°F14.7°C 58.2°F14.6°C 99% 1.2 mph W1.9 kmh W 3.5 mph5.6 kmh 30.06 in1017.9 mb - 0.00 in0.0 mm 0.00 in0.0 mm
02:00 AM 58.3°F14.6°C 58.0°F14.4°C 99% 3.5 mph W5.6 kmh W 4.6 mph7.4 kmh 30.06 in1017.9 mb - 0.00 in0.0 mm 0.00 in0.0 mm
02:10 AM 58.3°F14.6°C 58.0°F14.4°C 99% 2.3 mph NW3.7 kmh NW 3.5 mph5.6 kmh 30.06 in1017.9 mb - 0.00 in0.0 mm 0.00 in0.0 mm
02:15 AM 58.3°F14.6°C 58.0°F14.4°C 99% 3.5 mph W5.6 kmh W 3.5 mph5.6 kmh 30.06 in1017.9 mb - 0.00 in0.0 mm 0.00 in0.0 mm
02:20 AM 58.1°F14.5°C 57.8°F14.3°C 99% 1.2 mph W1.9 kmh W 3.5 mph5.6 kmh 30.06 in1017.9 mb - 0.00 in0.0 mm 0.00 in0.0 mm
02:25 AM 57.9°F14.4°C 57.6°F14.2°C 99% 2.3 mph W3.7 kmh W 3.5 mph5.6 kmh 30.06 in1017.9 mb - 0.00 in0.0 mm 0.00 in0.0 mm
02:30 AM 57.9°F14.4°C 57.6°F14.2°C 99% 3.5 mph W5.6 kmh W 4.6 mph7.4 kmh 30.06 in1017.9 mb - 0.00 in0.0 mm 0.00 in0.0 mm
02:35 AM 57.9°F14.4°C 57.6°F14.2°C 99% 3.5 mph SW5.6 kmh SW 4.6 mph7.4 kmh 30.06 in1017.9 mb - 0.00 in0.0 mm 0.00 in0.0 mm
02:40 AM 57.9°F14.4°C 57.6°F14.2°C 99% 1.2 mph WSW1.9 kmh WSW 5.8 mph9.3 kmh 30.06 in1017.9 mb - 0.00 in0.0 mm 0.00 in0.0 mm
02:45 AM 57.7°F14.3°C 57.5°F14.2°C 99% 2.3 mph W3.7 kmh W 3.5 mph5.6 kmh 30.06 in1017.9 mb - 0.00 in0.0 mm 0.00 in0.0 mm
02:50 AM 57.7°F14.3°C 57.5°F14.2°C 99% 2.3 mph WSW3.7 kmh WSW 3.5 mph5.6 kmh 30.06 in1017.9 mb - 0.00 in0.0 mm 0.00 in0.0 mm
02:55 AM 57.7°F14.3°C 57.5°F14.2°C 99% 1.2 mph W1.9 kmh W 3.5 mph5.6 kmh 30.06 in1017.9 mb - 0.00 in0.0 mm 0.00 in0.0 mm
03:00 AM 57.7°F14.3°C 57.5°F14.2°C 99% 2.3 mph SW3.7 kmh SW 3.5 mph5.6 kmh 30.06 in1017.9 mb - 0.00 in0.0 mm 0.00 in0.0 mm
03:10 AM 57.7°F14.3°C 57.5°F14.2°C 99% 1.2 mph W1.9 kmh W 4.6 mph7.4 kmh 30.06 in1017.9 mb - 0.00 in0.0 mm 0.00 in0.0 mm
03:15 AM 57.6°F14.2°C 57.3°F14.1°C 99% Calm Calm 1.2 mph1.9 kmh 30.06 in1017.9 mb - 0.00 in0.0 mm 0.00 in0.0 mm
03:20 AM 57.6°F14.2°C 57.3°F14.1°C 99% Calm Calm -- 30.06 in1017.9 mb - 0.00 in0.0 mm 0.00 in0.0 mm
03:25 AM 57.6°F14.2°C 57.3°F14.1°C 99% Calm Calm -- 30.06 in1017.9 mb - 0.00 in0.0 mm 0.00 in0.0 mm
03:30 AM 57.4°F14.1°C 57.1°F13.9°C 99% 1.2 mph W1.9 kmh W 3.5 mph5.6 kmh 30.06 in1017.9 mb - 0.00 in0.0 mm 0.00 in0.0 mm
03:35 AM 57.4°F14.1°C 57.1°F13.9°C 99% 1.2 mph W1.9 kmh W 3.5 mph5.6 kmh 30.06 in1017.9 mb - 0.00 in0.0 mm 0.00 in0.0 mm
03:40 AM 57.2°F14.0°C 56.9°F13.8°C 99% 1.2 mph W1.9 kmh W 3.5 mph5.6 kmh 30.06 in1017.9 mb - 0.00 in0.0 mm 0.00 in0.0 mm
03:45 AM 57.2°F14.0°C 56.9°F13.8°C 99% 3.5 mph NW5.6 kmh NW 4.6 mph7.4 kmh 30.06 in1017.9 mb - 0.00 in0.0 mm 0.00 in0.0 mm
03:50 AM 57.0°F13.9°C 56.8°F13.8°C 99% 2.3 mph W3.7 kmh W 3.5 mph5.6 kmh 30.06 in1017.9 mb - 0.00 in0.0 mm 0.00 in0.0 mm
03:55 AM 57.0°F13.9°C 56.7°F13.7°C 99% 1.2 mph NW1.9 kmh NW 2.3 mph3.7 kmh 30.06 in1017.9 mb - 0.00 in0.0 mm 0.00 in0.0 mm
04:00 AM 56.8°F13.8°C 56.6°F13.7°C 99% 2.3 mph W3.7 kmh W 3.5 mph5.6 kmh 30.06 in1017.9 mb - 0.00 in0.0 mm 0.00 in0.0 mm
04:10 AM 56.7°F13.7°C 56.4°F13.6°C 99% 3.5 mph W5.6 kmh W 5.8 mph9.3 kmh 30.06 in1017.9 mb - 0.00 in0.0 mm 0.00 in0.0 mm
04:15 AM 56.7°F13.7°C 56.4°F13.6°C 99% 2.3 mph W3.7 kmh W 3.5 mph5.6 kmh 30.06 in1017.9 mb - 0.00 in0.0 mm 0.00 in0.0 mm
04:20 AM 56.5°F13.6°C 56.2°F13.4°C 99% 3.5 mph WSW5.6 kmh WSW 3.5 mph5.6 kmh 30.06 in1017.9 mb - 0.00 in0.0 mm 0.00 in0.0 mm
04:25 AM 56.5°F13.6°C 56.2°F13.4°C 99% 4.6 mph W7.4 kmh W 6.9 mph11.1 kmh 30.06 in1017.9 mb - 0.00 in0.0 mm 0.00 in0.0 mm
04:30 AM 56.5°F13.6°C 56.2°F13.4°C 99% 4.6 mph NW7.4 kmh NW 5.8 mph9.3 kmh 30.06 in1017.9 mb - 0.00 in0.0 mm 0.00 in0.0 mm
04:35 AM 56.3°F13.5°C 56.0°F13.3°C 99% 3.5 mph W5.6 kmh W 5.8 mph9.3 kmh 30.06 in1017.9 mb - 0.00 in0.0 mm 0.00 in0.0 mm
04:40 AM 56.1°F13.4°C 55.8°F13.2°C 99% 3.5 mph NW5.6 kmh NW 5.8 mph9.3 kmh 30.06 in1017.9 mb - 0.00 in0.0 mm 0.00 in0.0 mm
04:45 AM 55.8°F13.2°C 55.5°F13.1°C 99% 4.6 mph W7.4 kmh W 5.8 mph9.3 kmh 30.06 in1017.9 mb - 0.00 in0.0 mm 0.00 in0.0 mm
04:50 AM 55.8°F13.2°C 55.5°F13.1°C 99% 3.5 mph W5.6 kmh W 5.8 mph9.3 kmh 30.06 in1017.9 mb - 0.00 in0.0 mm 0.00 in0.0 mm
04:55 AM 55.8°F13.2°C 55.5°F13.1°C 99% 2.3 mph NW3.7 kmh NW 4.6 mph7.4 kmh 30.06 in1017.9 mb - 0.00 in0.0 mm 0.00 in0.0 mm
05:00 AM 55.6°F13.1°C 55.3°F12.9°C 99% 3.5 mph NW5.6 kmh NW 5.8 mph9.3 kmh 30.06 in1017.9 mb - 0.00 in0.0 mm 0.00 in0.0 mm
05:10 AM 55.6°F13.1°C 55.3°F12.9°C 99% 3.5 mph W5.6 kmh W 4.6 mph7.4 kmh 30.03 in1016.9 mb - 0.00 in0.0 mm 0.00 in0.0 mm
05:15 AM 55.4°F13.0°C 55.1°F12.8°C 99% 4.6 mph NW7.4 kmh NW 5.8 mph9.3 kmh 30.03 in1016.9 mb - 0.00 in0.0 mm 0.00 in0.0 mm
05:20 AM 55.4°F13.0°C 55.1°F12.8°C 99% 3.5 mph NW5.6 kmh NW 5.8 mph9.3 kmh 30.03 in1016.9 mb - 0.00 in0.0 mm 0.00 in0.0 mm
05:25 AM 55.4°F13.0°C 55.1°F12.8°C 99% 4.6 mph W7.4 kmh W 5.8 mph9.3 kmh 30.03 in1016.9 mb - 0.00 in0.0 mm 0.00 in0.0 mm
05:30 AM 55.2°F12.9°C 54.4°F12.4°C 97% 3.5 mph W5.6 kmh W 4.6 mph7.4 kmh 30.03 in1016.9 mb - 0.00 in0.0 mm 0.00 in0.0 mm
05:35 AM 55.2°F12.9°C 54.4°F12.4°C 97% 3.5 mph W5.6 kmh W 3.5 mph5.6 kmh 30.03 in1016.9 mb - 0.00 in0.0 mm 0.00 in0.0 mm
05:40 AM 55.2°F12.9°C 54.4°F12.4°C 97% 2.3 mph W3.7 kmh W 3.5 mph5.6 kmh 30.03 in1016.9 mb - 0.00 in0.0 mm 0.00 in0.0 mm
05:45 AM 55.2°F12.9°C 54.4°F12.4°C 97% 2.3 mph W3.7 kmh W 4.6 mph7.4 kmh 30.03 in1016.9 mb - 0.00 in0.0 mm 0.00 in0.0 mm
05:50 AM 55.2°F12.9°C 54.4°F12.4°C 97% 3.5 mph SW5.6 kmh SW 3.5 mph5.6 kmh 30.03 in1016.9 mb - 0.00 in0.0 mm 0.00 in0.0 mm
05:55 AM 55.1°F12.8°C 54.2°F12.3°C 97% 3.5 mph NW5.6 kmh NW 4.6 mph7.4 kmh 30.03 in1016.9 mb - 0.00 in0.0 mm 0.00 in0.0 mm
06:00 AM 55.0°F12.8°C 54.2°F12.3°C 97% 1.2 mph W1.9 kmh W 4.6 mph7.4 kmh 30.03 in1016.9 mb - 0.00 in0.0 mm 0.00 in0.0 mm
06:10 AM 55.0°F12.8°C 54.2°F12.3°C 97% 2.3 mph W3.7 kmh W 5.8 mph9.3 kmh 30.06 in1017.9 mb - 0.00 in0.0 mm 0.00 in0.0 mm
06:15 AM 55.0°F12.8°C 54.2°F12.3°C 97% 3.5 mph W5.6 kmh W 4.6 mph7.4 kmh 30.06 in1017.9 mb - 0.00 in0.0 mm 0.00 in0.0 mm
06:20 AM 55.0°F12.8°C 54.2°F12.3°C 97% 2.3 mph NW3.7 kmh NW 3.5 mph5.6 kmh 30.06 in1017.9 mb - 0.00 in0.0 mm 0.00 in0.0 mm
06:25 AM 54.9°F12.7°C 54.0°F12.2°C 97% 3.5 mph NW5.6 kmh NW 5.8 mph9.3 kmh 30.06 in1017.9 mb - 0.00 in0.0 mm 0.00 in0.0 mm
06:30 AM 54.9°F12.7°C 54.0°F12.2°C 97% 4.6 mph NW7.4 kmh NW 6.9 mph11.1 kmh 30.06 in1017.9 mb - 0.00 in0.0 mm 0.00 in0.0 mm
06:35 AM 54.9°F12.7°C 54.0°F12.2°C 97% 3.5 mph W5.6 kmh W 5.8 mph9.3 kmh 30.06 in1017.9 mb - 0.00 in0.0 mm 0.00 in0.0 mm
06:40 AM 54.9°F12.7°C 54.0°F12.2°C 97% 3.5 mph W5.6 kmh W 5.8 mph9.3 kmh 30.06 in1017.9 mb - 0.00 in0.0 mm 0.00 in0.0 mm
06:45 AM 54.9°F12.7°C 54.0°F12.2°C 97% 3.5 mph W5.6 kmh W 4.6 mph7.4 kmh 30.06 in1017.9 mb - 0.00 in0.0 mm 0.00 in0.0 mm
06:50 AM 54.9°F12.7°C 54.0°F12.2°C 97% 3.5 mph NW5.6 kmh NW 5.8 mph9.3 kmh 30.06 in1017.9 mb - 0.00 in0.0 mm 0.00 in0.0 mm
06:55 AM 54.9°F12.7°C 54.0°F12.2°C 97% 2.3 mph WNW3.7 kmh WNW 3.5 mph5.6 kmh 30.06 in1017.9 mb - 0.00 in0.0 mm 0.00 in0.0 mm
07:00 AM 54.9°F12.7°C 54.0°F12.2°C 97% 2.3 mph W3.7 kmh W 3.5 mph5.6 kmh 30.06 in1017.9 mb - 0.00 in0.0 mm 0.00 in0.0 mm
07:10 AM 54.9°F12.7°C 54.0°F12.2°C 97% 1.2 mph NW1.9 kmh NW 1.2 mph1.9 kmh 30.06 in1017.9 mb - 0.00 in0.0 mm 0.00 in0.0 mm
07:15 AM 54.9°F12.7°C 54.0°F12.2°C 97% Calm Calm -- 30.06 in1017.9 mb - 0.00 in0.0 mm 0.00 in0.0 mm
07:20 AM 54.9°F12.7°C 54.0°F12.2°C 97% Calm Calm 2.3 mph3.7 kmh 30.06 in1017.9 mb - 0.00 in0.0 mm 0.00 in0.0 mm
07:25 AM 54.9°F12.7°C 54.0°F12.2°C 97% 3.5 mph NW5.6 kmh NW 3.5 mph5.6 kmh 30.06 in1017.9 mb - 0.00 in0.0 mm 0.00 in0.0 mm
07:30 AM 55.0°F12.8°C 54.2°F12.3°C 97% 2.3 mph WSW3.7 kmh WSW 3.5 mph5.6 kmh 30.06 in1017.9 mb - 0.00 in0.0 mm 0.00 in0.0 mm
07:35 AM 55.2°F12.9°C 54.4°F12.4°C 97% 2.3 mph W3.7 kmh W 4.6 mph7.4 kmh 30.06 in1017.9 mb - 0.00 in0.0 mm 0.00 in0.0 mm
07:40 AM 55.2°F12.9°C 54.4°F12.4°C 97% 6.9 mph W11.1 kmh W 8.1 mph13.0 kmh 30.06 in1017.9 mb - 0.00 in0.0 mm 0.00 in0.0 mm
07:45 AM 55.2°F12.9°C 54.4°F12.4°C 97% 4.6 mph NW7.4 kmh NW 6.9 mph11.1 kmh 30.06 in1017.9 mb - 0.00 in0.0 mm 0.00 in0.0 mm
07:50 AM 55.2°F12.9°C 54.4°F12.4°C 97% 4.6 mph WNW7.4 kmh WNW 5.8 mph9.3 kmh 30.06 in1017.9 mb - 0.00 in0.0 mm 0.00 in0.0 mm
07:55 AM 55.4°F13.0°C 55.1°F12.8°C 99% 4.6 mph NW7.4 kmh NW 5.8 mph9.3 kmh 30.06 in1017.9 mb - 0.00 in0.0 mm 0.00 in0.0 mm
08:00 AM 55.7°F13.2°C 55.5°F13.1°C 99% 3.5 mph NW5.6 kmh NW 4.6 mph7.4 kmh 30.06 in1017.9 mb - 0.00 in0.0 mm 0.00 in0.0 mm
08:10 AM 56.3°F13.5°C 56.0°F13.3°C 99% 2.3 mph W3.7 kmh W 3.5 mph5.6 kmh 30.06 in1017.9 mb - 0.00 in0.0 mm 0.00 in0.0 mm
08:15 AM 56.5°F13.6°C 56.2°F13.4°C 99% 3.5 mph W5.6 kmh W 3.5 mph5.6 kmh 30.06 in1017.9 mb - 0.00 in0.0 mm 0.00 in0.0 mm
08:20 AM 56.7°F13.7°C 56.4°F13.6°C 99% 4.6 mph NW7.4 kmh NW 5.8 mph9.3 kmh 30.06 in1017.9 mb - 0.00 in0.0 mm 0.00 in0.0 mm
08:25 AM 56.7°F13.7°C 56.4°F13.6°C 99% 3.5 mph W5.6 kmh W 5.8 mph9.3 kmh 30.06 in1017.9 mb - 0.00 in0.0 mm 0.00 in0.0 mm
08:30 AM 57.0°F13.9°C 56.7°F13.7°C 99% 3.5 mph W5.6 kmh W 4.6 mph7.4 kmh 30.06 in1017.9 mb - 0.00 in0.0 mm 0.00 in0.0 mm
08:35 AM 57.4°F14.1°C 57.1°F13.9°C 99% 5.8 mph W9.3 kmh W 8.1 mph13.0 kmh 30.06 in1017.9 mb - 0.00 in0.0 mm 0.00 in0.0 mm
08:40 AM 57.7°F14.3°C 57.4°F14.1°C 99% 3.5 mph W5.6 kmh W 8.1 mph13.0 kmh 30.06 in1017.9 mb - 0.00 in0.0 mm 0.00 in0.0 mm
08:45 AM 58.1°F14.5°C 57.8°F14.3°C 99% 1.2 mph SW1.9 kmh SW 4.6 mph7.4 kmh 30.06 in1017.9 mb - 0.00 in0.0 mm 0.00 in0.0 mm
08:50 AM 58.6°F14.8°C 58.4°F14.7°C 99% Calm Calm -- 30.06 in1017.9 mb - 0.00 in0.0 mm 0.00 in0.0 mm
08:55 AM 59.2°F15.1°C 58.9°F14.9°C 99% Calm Calm -- 30.06 in1017.9 mb - 0.00 in0.0 mm 0.00 in0.0 mm
09:00 AM 59.5°F15.3°C 59.3°F15.2°C 99% 2.3 mph SW3.7 kmh SW 3.5 mph5.6 kmh 30.06 in1017.9 mb - 0.00 in0.0 mm 0.00 in0.0 mm
09:10 AM 60.6°F15.9°C 60.3°F15.7°C 99% 3.5 mph W5.6 kmh W 5.8 mph9.3 kmh 30.06 in1017.9 mb - 0.00 in0.0 mm 0.00 in0.0 mm
09:15 AM 61.1°F16.2°C 60.6°F15.9°C 98% 2.3 mph W3.7 kmh W 3.5 mph5.6 kmh 30.06 in1017.9 mb - 0.00 in0.0 mm 0.00 in0.0 mm
09:20 AM 61.7°F16.5°C 61.1°F16.2°C 98% Calm Calm 2.3 mph3.7 kmh 30.06 in1017.9 mb - 0.00 in0.0 mm 0.00 in0.0 mm
09:25 AM 62.8°F17.1°C 61.9°F16.6°C 97% Calm Calm -- 30.06 in1017.9 mb - 0.00 in0.0 mm 0.00 in0.0 mm
09:30 AM 63.5°F17.5°C 62.6°F17.0°C 97% Calm Calm -- 30.06 in1017.9 mb - 0.00 in0.0 mm 0.00 in0.0 mm
09:35 AM 64.2°F17.9°C 63.3°F17.4°C 97% Calm Calm -- 30.06 in1017.9 mb - 0.00 in0.0 mm 0.00 in0.0 mm
09:40 AM 65.1°F18.4°C 64.8°F18.2°C 99% Calm Calm -- 30.06 in1017.9 mb - 0.00 in0.0 mm 0.00 in0.0 mm
09:45 AM 65.8°F18.8°C 65.5°F18.6°C 99% Calm Calm -- 30.06 in1017.9 mb - 0.00 in0.0 mm 0.00 in0.0 mm
09:50 AM 66.2°F19.0°C 65.9°F18.8°C 99% Calm Calm -- 30.06 in1017.9 mb - 0.00 in0.0 mm 0.00 in0.0 mm
09:55 AM 66.7°F19.3°C 66.5°F19.2°C 99% Calm Calm -- 30.06 in1017.9 mb - 0.00 in0.0 mm 0.00 in0.0 mm
10:00 AM 67.4°F19.7°C 67.2°F19.6°C 99% Calm Calm -- 30.06 in1017.9 mb - 0.00 in0.0 mm 0.00 in0.0 mm
10:10 AM 68.7°F20.4°C 68.4°F20.2°C 99% Calm Calm -- 30.09 in1019.0 mb - 0.00 in0.0 mm 0.00 in0.0 mm
10:15 AM 69.1°F20.6°C 68.8°F20.4°C 99% 2.3 mph E3.7 kmh E 3.5 mph5.6 kmh 30.09 in1019.0 mb - 0.00 in0.0 mm 0.00 in0.0 mm
10:20 AM 69.3°F20.7°C 69.0°F20.6°C 99% 3.5 mph E5.6 kmh E 4.6 mph7.4 kmh 30.09 in1019.0 mb - 0.00 in0.0 mm 0.00 in0.0 mm
10:25 AM 69.4°F20.8°C 68.6°F20.3°C 97% 3.5 mph E5.6 kmh E 6.9 mph11.1 kmh 30.09 in1019.0 mb - 0.00 in0.0 mm 0.00 in0.0 mm
10:30 AM 69.8°F21.0°C 68.0°F20.0°C 94% 3.5 mph E5.6 kmh E 5.8 mph9.3 kmh 30.09 in1019.0 mb - 0.00 in0.0 mm 0.00 in0.0 mm
10:35 AM 69.8°F21.0°C 67.7°F19.8°C 93% 3.5 mph E5.6 kmh E 5.8 mph9.3 kmh 30.09 in1019.0 mb - 0.00 in0.0 mm 0.00 in0.0 mm
10:40 AM 70.0°F21.1°C 67.2°F19.6°C 91% 3.5 mph SE5.6 kmh SE 6.9 mph11.1 kmh 30.09 in1019.0 mb - 0.00 in0.0 mm 0.00 in0.0 mm
10:45 AM 70.3°F21.3°C 66.6°F19.2°C 88% 5.8 mph E9.3 kmh E 6.9 mph11.1 kmh 30.09 in1019.0 mb - 0.00 in0.0 mm 0.00 in0.0 mm
10:50 AM 70.5°F21.4°C 66.1°F18.9°C 86% 4.6 mph E7.4 kmh E 8.1 mph13.0 kmh 30.09 in1019.0 mb - 0.00 in0.0 mm 0.00 in0.0 mm
10:55 AM 70.2°F21.2°C 65.1°F18.4°C 84% 3.5 mph E5.6 kmh E 5.8 mph9.3 kmh 30.09 in1019.0 mb - 0.00 in0.0 mm 0.00 in0.0 mm
11:00 AM 70.2°F21.2°C 64.4°F18.0°C 82% 2.3 mph E3.7 kmh E 4.6 mph7.4 kmh 30.09 in1019.0 mb - 0.00 in0.0 mm 0.00 in0.0 mm
11:10 AM 70.7°F21.5°C 64.6°F18.1°C 81% 5.8 mph NE9.3 kmh NE 5.8 mph9.3 kmh 30.09 in1019.0 mb - 0.00 in0.0 mm 0.00 in0.0 mm
11:15 AM 70.9°F21.6°C 63.3°F17.4°C 77% 2.3 mph E3.7 kmh E 5.8 mph9.3 kmh 30.09 in1019.0 mb - 0.00 in0.0 mm 0.00 in0.0 mm
11:20 AM 71.2°F21.8°C 62.9°F17.2°C 75% 3.5 mph E5.6 kmh E 4.6 mph7.4 kmh 30.09 in1019.0 mb - 0.00 in0.0 mm 0.00 in0.0 mm
11:25 AM 71.6°F22.0°C 62.5°F16.9°C 73% 4.6 mph ESE7.4 kmh ESE 5.8 mph9.3 kmh 30.09 in1019.0 mb - 0.00 in0.0 mm 0.00 in0.0 mm
11:30 AM 72.1°F22.3°C 62.6°F17.0°C 72% 3.5 mph E5.6 kmh E 6.9 mph11.1 kmh 30.09 in1019.0 mb - 0.00 in0.0 mm 0.00 in0.0 mm
11:35 AM 72.3°F22.4°C 62.4°F16.9°C 71% 5.8 mph SE9.3 kmh SE 6.9 mph11.1 kmh 30.09 in1019.0 mb - 0.00 in0.0 mm 0.00 in0.0 mm
11:40 AM 72.7°F22.6°C 62.3°F16.8°C 70% 5.8 mph E9.3 kmh E 6.9 mph11.1 kmh 30.09 in1019.0 mb - 0.00 in0.0 mm 0.00 in0.0 mm
11:45 AM 73.2°F22.9°C 62.8°F17.1°C 70% 5.8 mph E9.3 kmh E 6.9 mph11.1 kmh 30.09 in1019.0 mb - 0.00 in0.0 mm 0.00 in0.0 mm
11:50 AM 73.4°F23.0°C 62.2°F16.8°C 68% 4.6 mph NE7.4 kmh NE 6.9 mph11.1 kmh 30.09 in1019.0 mb - 0.00 in0.0 mm 0.00 in0.0 mm
11:55 AM 73.6°F23.1°C 61.5°F16.4°C 66% 2.3 mph E3.7 kmh E 3.5 mph5.6 kmh 30.09 in1019.0 mb - 0.00 in0.0 mm 0.00 in0.0 mm
12:00 PM 73.9°F23.3°C 61.4°F16.3°C 65% 5.8 mph E9.3 kmh E 8.1 mph13.0 kmh 30.09 in1019.0 mb - 0.00 in0.0 mm 0.00 in0.0 mm
12:10 PM 74.3°F23.5°C 60.0°F15.6°C 61% 4.6 mph E7.4 kmh E 5.8 mph9.3 kmh 30.06 in1017.9 mb - 0.00 in0.0 mm 0.00 in0.0 mm
12:15 PM 74.3°F23.5°C 59.5°F15.3°C 60% 4.6 mph E7.4 kmh E 5.8 mph9.3 kmh 30.06 in1017.9 mb - 0.00 in0.0 mm 0.00 in0.0 mm
12:20 PM 74.5°F23.6°C 59.7°F15.4°C 60% 4.6 mph E7.4 kmh E 5.8 mph9.3 kmh 30.06 in1017.9 mb - 0.00 in0.0 mm 0.00 in0.0 mm
12:25 PM 74.8°F23.8°C 59.1°F15.1°C 58% 5.8 mph E9.3 kmh E 6.9 mph11.1 kmh 30.06 in1017.9 mb - 0.00 in0.0 mm 0.00 in0.0 mm
12:30 PM 75.2°F24.0°C 58.4°F14.7°C 56% 1.2 mph E1.9 kmh E 5.8 mph9.3 kmh 30.06 in1017.9 mb - 0.00 in0.0 mm 0.00 in0.0 mm
12:35 PM 75.7°F24.3°C 58.9°F14.9°C 56% 4.6 mph ESE7.4 kmh ESE 5.8 mph9.3 kmh 30.06 in1017.9 mb - 0.00 in0.0 mm 0.00 in0.0 mm
12:40 PM 75.9°F24.4°C 59.1°F15.1°C 56% 3.5 mph E5.6 kmh E 5.8 mph9.3 kmh 30.06 in1017.9 mb - 0.00 in0.0 mm 0.00 in0.0 mm
12:45 PM 76.3°F24.6°C 58.9°F14.9°C 55% 3.5 mph SE5.6 kmh SE 6.9 mph11.1 kmh 30.06 in1017.9 mb - 0.00 in0.0 mm 0.00 in0.0 mm
12:50 PM 76.5°F24.7°C 59.1°F15.1°C 55% 1.2 mph S1.9 kmh S 3.5 mph5.6 kmh 30.06 in1017.9 mb - 0.00 in0.0 mm 0.00 in0.0 mm
12:55 PM 76.6°F24.8°C 57.2°F14.0°C 51% 3.5 mph ENE5.6 kmh ENE 4.6 mph7.4 kmh 30.06 in1017.9 mb - 0.00 in0.0 mm 0.00 in0.0 mm
01:00 PM 76.8°F24.9°C 57.9°F14.4°C 52% 4.6 mph E7.4 kmh E 8.1 mph13.0 kmh 30.06 in1017.9 mb - 0.00 in0.0 mm 0.00 in0.0 mm
01:10 PM 77.0°F25.0°C 56.4°F13.6°C 49% 3.5 mph E5.6 kmh E 5.8 mph9.3 kmh 30.03 in1016.9 mb - 0.00 in0.0 mm 0.00 in0.0 mm
01:15 PM 77.3°F25.2°C 57.3°F14.1°C 50% 5.8 mph E9.3 kmh E 8.1 mph13.0 kmh 30.03 in1016.9 mb - 0.00 in0.0 mm 0.00 in0.0 mm
01:20 PM 77.4°F25.2°C 57.3°F14.1°C 50% 5.8 mph E9.3 kmh E 9.2 mph14.8 kmh 30.03 in1016.9 mb - 0.00 in0.0 mm 0.00 in0.0 mm
01:25 PM 77.0°F25.0°C 56.4°F13.6°C 49% 4.6 mph E7.4 kmh E 10.4 mph16.7 kmh 30.03 in1016.9 mb - 0.00 in0.0 mm 0.00 in0.0 mm
01:30 PM 77.0°F25.0°C 57.5°F14.2°C 51% 3.5 mph E5.6 kmh E 8.1 mph13.0 kmh 30.03 in1016.9 mb - 0.00 in0.0 mm 0.00 in0.0 mm
01:35 PM 77.4°F25.2°C 57.8°F14.3°C 51% 3.5 mph E5.6 kmh E 6.9 mph11.1 kmh 30.03 in1016.9 mb - 0.00 in0.0 mm 0.00 in0.0 mm
01:40 PM 77.5°F25.3°C 56.9°F13.8°C 49% 5.8 mph NE9.3 kmh NE 8.1 mph13.0 kmh 30.03 in1016.9 mb - 0.00 in0.0 mm 0.00 in0.0 mm
01:45 PM 77.2°F25.1°C 56.0°F13.3°C 48% 4.6 mph E7.4 kmh E 5.8 mph9.3 kmh 30.03 in1016.9 mb - 0.00 in0.0 mm 0.00 in0.0 mm
01:50 PM 77.5°F25.3°C 56.3°F13.5°C 48% 3.5 mph E5.6 kmh E 6.9 mph11.1 kmh 30.03 in1016.9 mb - 0.00 in0.0 mm 0.00 in0.0 mm
01:55 PM 77.5°F25.3°C 55.7°F13.2°C 47% 5.8 mph E9.3 kmh E 8.1 mph13.0 kmh 30.03 in1016.9 mb - 0.00 in0.0 mm 0.00 in0.0 mm
02:00 PM 77.5°F25.3°C 56.3°F13.5°C 48% 5.8 mph E9.3 kmh E 8.1 mph13.0 kmh 30.03 in1016.9 mb - 0.00 in0.0 mm 0.00 in0.0 mm
02:10 PM 77.5°F25.3°C 56.3°F13.5°C 48% 5.8 mph E9.3 kmh E 6.9 mph11.1 kmh 30.03 in1016.9 mb - 0.00 in0.0 mm 0.00 in0.0 mm
02:15 PM 77.5°F25.3°C 56.3°F13.5°C 48% 5.8 mph E9.3 kmh E 6.9 mph11.1 kmh 30.03 in1016.9 mb - 0.00 in0.0 mm 0.00 in0.0 mm
02:20 PM 77.4°F25.2°C 55.0°F12.8°C 46% 8.1 mph E13.0 kmh E 9.2 mph14.8 kmh 30.03 in1016.9 mb - 0.00 in0.0 mm 0.00 in0.0 mm
02:25 PM 77.0°F25.0°C 55.2°F12.9°C 47% 3.5 mph NE5.6 kmh NE 4.6 mph7.4 kmh 30.03 in1016.9 mb - 0.00 in0.0 mm 0.00 in0.0 mm
02:30 PM 77.3°F25.2°C 56.1°F13.4°C 48% 6.9 mph E11.1 kmh E 9.2 mph14.8 kmh 30.03 in1016.9 mb - 0.00 in0.0 mm 0.00 in0.0 mm
02:35 PM 77.5°F25.3°C 55.7°F13.2°C 47% 5.8 mph NE9.3 kmh NE 8.1 mph13.0 kmh 30.03 in1016.9 mb - 0.00 in0.0 mm 0.00 in0.0 mm
02:40 PM 78.0°F25.6°C 55.0°F12.8°C 45% 6.9 mph NE11.1 kmh NE 10.4 mph16.7 kmh 30.03 in1016.9 mb - 0.00 in0.0 mm 0.00 in0.0 mm
02:45 PM 78.4°F25.8°C 55.9°F13.3°C 46% 6.9 mph E11.1 kmh E 12.7 mph20.4 kmh 30.03 in1016.9 mb - 0.00 in0.0 mm 0.00 in0.0 mm
02:50 PM 78.6°F25.9°C 55.5°F13.1°C 45% 6.9 mph E11.1 kmh E 8.1 mph13.0 kmh 30.03 in1016.9 mb - 0.00 in0.0 mm 0.00 in0.0 mm
02:55 PM 78.8°F26.0°C 55.0°F12.8°C 44% 8.1 mph NE13.0 kmh NE 10.4 mph16.7 kmh 30.03 in1016.9 mb - 0.00 in0.0 mm 0.00 in0.0 mm
03:00 PM 78.8°F26.0°C 54.4°F12.4°C 43% 6.9 mph E11.1 kmh E 8.1 mph13.0 kmh 30.03 in1016.9 mb - 0.00 in0.0 mm 0.00 in0.0 mm
03:10 PM 78.6°F25.9°C 54.9°F12.7°C 44% 5.8 mph E9.3 kmh E 8.1 mph13.0 kmh 30.00 in1015.9 mb - 0.00 in0.0 mm 0.00 in0.0 mm
03:15 PM 79.0°F26.1°C 55.2°F12.9°C 44% 4.6 mph E7.4 kmh E 8.1 mph13.0 kmh 30.00 in1015.9 mb - 0.00 in0.0 mm 0.00 in0.0 mm
03:20 PM 79.2°F26.2°C 54.7°F12.6°C 43% 5.8 mph E9.3 kmh E 9.2 mph14.8 kmh 30.00 in1015.9 mb - 0.00 in0.0 mm 0.00 in0.0 mm
03:25 PM 78.8°F26.0°C 54.4°F12.4°C 43% 6.9 mph NE11.1 kmh NE 8.1 mph13.0 kmh 30.00 in1015.9 mb - 0.00 in0.0 mm 0.00 in0.0 mm
03:30 PM 78.4°F25.8°C 54.7°F12.6°C 44% 3.5 mph NE5.6 kmh NE 6.9 mph11.1 kmh 30.00 in1015.9 mb - 0.00 in0.0 mm 0.00 in0.0 mm
03:35 PM 78.4°F25.8°C 54.7°F12.6°C 44% 4.6 mph E7.4 kmh E 5.8 mph9.3 kmh 30.00 in1015.9 mb - 0.00 in0.0 mm 0.00 in0.0 mm
03:40 PM 78.6°F25.9°C 54.9°F12.7°C 44% 4.6 mph E7.4 kmh E 5.8 mph9.3 kmh 30.00 in1015.9 mb - 0.00 in0.0 mm 0.00 in0.0 mm
03:45 PM 78.8°F26.0°C 53.8°F12.1°C 42% 5.8 mph ESE9.3 kmh ESE 8.1 mph13.0 kmh 30.00 in1015.9 mb - 0.00 in0.0 mm 0.00 in0.0 mm
03:50 PM 79.0°F26.1°C 53.9°F12.2°C 42% 8.1 mph SE13.0 kmh SE 9.2 mph14.8 kmh 30.00 in1015.9 mb - 0.00 in0.0 mm 0.00 in0.0 mm
03:55 PM 79.0°F26.1°C 53.9°F12.2°C 42% 5.8 mph NE9.3 kmh NE 8.1 mph13.0 kmh 30.00 in1015.9 mb - 0.00 in0.0 mm 0.00 in0.0 mm
04:00 PM 79.0°F26.1°C 53.9°F12.2°C 42% 4.6 mph NE7.4 kmh NE 10.4 mph16.7 kmh 30.00 in1015.9 mb - 0.00 in0.0 mm 0.00 in0.0 mm
04:10 PM 79.0°F26.1°C 54.6°F12.6°C 43% 3.5 mph NE5.6 kmh NE 5.8 mph9.3 kmh 29.97 in1014.9 mb - 0.00 in0.0 mm 0.00 in0.0 mm
04:15 PM 79.2°F26.2°C 54.1°F12.3°C 42% 5.8 mph ENE9.3 kmh ENE 8.1 mph13.0 kmh 29.97 in1014.9 mb - 0.00 in0.0 mm 0.00 in0.0 mm
04:20 PM 79.2°F26.2°C 54.7°F12.6°C 43% 3.5 mph NE5.6 kmh NE 8.1 mph13.0 kmh 29.97 in1014.9 mb - 0.00 in0.0 mm 0.00 in0.0 mm
04:25 PM 79.3°F26.3°C 54.3°F12.4°C 42% 5.8 mph NE9.3 kmh NE 9.2 mph14.8 kmh 29.97 in1014.9 mb - 0.00 in0.0 mm 0.00 in0.0 mm
04:30 PM 79.0°F26.1°C 53.9°F12.2°C 42% 3.5 mph ENE5.6 kmh ENE 8.1 mph13.0 kmh 29.97 in1014.9 mb - 0.00 in0.0 mm 0.00 in0.0 mm
04:35 PM 78.8°F26.0°C 53.8°F12.1°C 42% 4.6 mph NE7.4 kmh NE 6.9 mph11.1 kmh 29.97 in1014.9 mb - 0.00 in0.0 mm 0.00 in0.0 mm
04:40 PM 78.6°F25.9°C 54.2°F12.3°C 43% 5.8 mph E9.3 kmh E 8.1 mph13.0 kmh 29.97 in1014.9 mb - 0.00 in0.0 mm 0.00 in0.0 mm
04:45 PM 78.6°F25.9°C 54.2°F12.3°C 43% 5.8 mph NE9.3 kmh NE 8.1 mph13.0 kmh 29.97 in1014.9 mb - 0.00 in0.0 mm 0.00 in0.0 mm
04:50 PM 78.4°F25.8°C 54.7°F12.6°C 44% 4.6 mph ENE7.4 kmh ENE 6.9 mph11.1 kmh 29.97 in1014.9 mb - 0.00 in0.0 mm 0.00 in0.0 mm
04:55 PM 78.4°F25.8°C 54.7°F12.6°C 44% 4.6 mph E7.4 kmh E 10.4 mph16.7 kmh 29.97 in1014.9 mb - 0.00 in0.0 mm 0.00 in0.0 mm
05:00 PM 78.4°F25.8°C 54.1°F12.3°C 43% 5.8 mph E9.3 kmh E 9.2 mph14.8 kmh 29.97 in1014.9 mb - 0.00 in0.0 mm 0.00 in0.0 mm
05:10 PM 77.7°F25.4°C 53.4°F11.9°C 43% 8.1 mph ENE13.0 kmh ENE 10.4 mph16.7 kmh 29.94 in1013.9 mb - 0.00 in0.0 mm 0.00 in0.0 mm
05:15 PM 77.5°F25.3°C 53.3°F11.8°C 43% 6.9 mph NE11.1 kmh NE 9.2 mph14.8 kmh 29.94 in1013.9 mb - 0.00 in0.0 mm 0.00 in0.0 mm
05:20 PM 77.4°F25.2°C 53.7°F12.1°C 44% 4.6 mph SE7.4 kmh SE 6.9 mph11.1 kmh 29.94 in1013.9 mb - 0.00 in0.0 mm 0.00 in0.0 mm
05:25 PM 77.2°F25.1°C 53.6°F12.0°C 44% 9.2 mph ENE14.8 kmh ENE 12.7 mph20.4 kmh 29.94 in1013.9 mb - 0.00 in0.0 mm 0.00 in0.0 mm
05:30 PM 77.0°F25.0°C 53.4°F11.9°C 44% 3.5 mph NE5.6 kmh NE 5.8 mph9.3 kmh 29.94 in1013.9 mb - 0.00 in0.0 mm 0.00 in0.0 mm
05:35 PM 76.8°F24.9°C 54.5°F12.5°C 46% 4.6 mph ENE7.4 kmh ENE 5.8 mph9.3 kmh 29.94 in1013.9 mb - 0.00 in0.0 mm 0.00 in0.0 mm
05:40 PM 76.5°F24.7°C 54.2°F12.3°C 46% 6.9 mph NE11.1 kmh NE 10.4 mph16.7 kmh 29.94 in1013.9 mb - 0.00 in0.0 mm 0.00 in0.0 mm
05:45 PM 76.5°F24.7°C 54.7°F12.6°C 47% 5.8 mph E9.3 kmh E 6.9 mph11.1 kmh 29.94 in1013.9 mb - 0.00 in0.0 mm 0.00 in0.0 mm
05:50 PM 76.3°F24.6°C 55.1°F12.8°C 48% 5.8 mph ESE9.3 kmh ESE 8.1 mph13.0 kmh 29.94 in1013.9 mb - 0.00 in0.0 mm 0.00 in0.0 mm
05:55 PM 76.1°F24.5°C 55.0°F12.8°C 48% 5.8 mph E9.3 kmh E 6.9 mph11.1 kmh 29.94 in1013.9 mb - 0.00 in0.0 mm 0.00 in0.0 mm
06:00 PM 76.1°F24.5°C 55.0°F12.8°C 48% 5.8 mph ENE9.3 kmh ENE 6.9 mph11.1 kmh 29.94 in1013.9 mb - 0.00 in0.0 mm 0.00 in0.0 mm
06:10 PM 75.7°F24.3°C 55.8°F13.2°C 50% 3.5 mph E5.6 kmh E 4.6 mph7.4 kmh 29.94 in1013.9 mb - 0.00 in0.0 mm 0.00 in0.0 mm
06:15 PM 75.4°F24.1°C 55.5°F13.1°C 50% 2.3 mph E3.7 kmh E 5.8 mph9.3 kmh 29.94 in1013.9 mb - 0.00 in0.0 mm 0.00 in0.0 mm
06:20 PM 75.2°F24.0°C 55.8°F13.2°C 51% 3.5 mph E5.6 kmh E 3.5 mph5.6 kmh 29.94 in1013.9 mb - 0.00 in0.0 mm 0.00 in0.0 mm
06:25 PM 75.0°F23.9°C 56.7°F13.7°C 53% 3.5 mph E5.6 kmh E 4.6 mph7.4 kmh 29.94 in1013.9 mb - 0.00 in0.0 mm 0.00 in0.0 mm
06:30 PM 74.7°F23.7°C 56.9°F13.8°C 54% 3.5 mph NE5.6 kmh NE 3.5 mph5.6 kmh 29.94 in1013.9 mb - 0.00 in0.0 mm 0.00 in0.0 mm
06:35 PM 74.5°F23.6°C 57.3°F14.1°C 55% 3.5 mph E5.6 kmh E 5.8 mph9.3 kmh 29.94 in1013.9 mb - 0.00 in0.0 mm 0.00 in0.0 mm
06:40 PM 74.3°F23.5°C 57.1°F13.9°C 55% 3.5 mph E5.6 kmh E 4.6 mph7.4 kmh 29.94 in1013.9 mb - 0.00 in0.0 mm 0.00 in0.0 mm
06:45 PM 74.1°F23.4°C 56.9°F13.8°C 55% 3.5 mph NE5.6 kmh NE 3.5 mph5.6 kmh 29.94 in1013.9 mb - 0.00 in0.0 mm 0.00 in0.0 mm
06:50 PM 73.9°F23.3°C 57.3°F14.1°C 56% 3.5 mph NE5.6 kmh NE 3.5 mph5.6 kmh 29.94 in1013.9 mb - 0.00 in0.0 mm 0.00 in0.0 mm
06:55 PM 73.8°F23.2°C 57.1°F13.9°C 56% 3.5 mph E5.6 kmh E 4.6 mph7.4 kmh 29.94 in1013.9 mb - 0.00 in0.0 mm 0.00 in0.0 mm
07:00 PM 73.4°F23.0°C 56.7°F13.7°C 56% 3.5 mph NE5.6 kmh NE 3.5 mph5.6 kmh 29.94 in1013.9 mb - 0.00 in0.0 mm 0.00 in0.0 mm
07:10 PM 73.0°F22.8°C 56.9°F13.8°C 57% 3.5 mph E5.6 kmh E 4.6 mph7.4 kmh 29.91 in1012.9 mb - 0.00 in0.0 mm 0.00 in0.0 mm
07:15 PM 72.9°F22.7°C 57.2°F14.0°C 58% 1.2 mph E1.9 kmh E 1.2 mph1.9 kmh 29.91 in1012.9 mb - 0.00 in0.0 mm 0.00 in0.0 mm
07:20 PM 72.5°F22.5°C 57.4°F14.1°C 59% 1.2 mph SE1.9 kmh SE 3.5 mph5.6 kmh 29.91 in1012.9 mb - 0.00 in0.0 mm 0.00 in0.0 mm
07:25 PM 71.8°F22.1°C 57.2°F14.0°C 60% 2.3 mph E3.7 kmh E 3.5 mph5.6 kmh 29.91 in1012.9 mb - 0.00 in0.0 mm 0.00 in0.0 mm
07:30 PM 71.4°F21.9°C 57.3°F14.1°C 61% 1.2 mph E1.9 kmh E 3.5 mph5.6 kmh 29.91 in1012.9 mb - 0.00 in0.0 mm 0.00 in0.0 mm
07:35 PM 71.2°F21.8°C 57.5°F14.2°C 62% 1.2 mph E1.9 kmh E 1.2 mph1.9 kmh 29.91 in1012.9 mb - 0.00 in0.0 mm 0.00 in0.0 mm
07:40 PM 70.9°F21.6°C 57.7°F14.3°C 63% 1.2 mph E1.9 kmh E 2.3 mph3.7 kmh 29.91 in1012.9 mb - 0.00 in0.0 mm 0.00 in0.0 mm
07:45 PM 70.7°F21.5°C 57.5°F14.2°C 63% Calm Calm 2.3 mph3.7 kmh 29.91 in1012.9 mb - 0.00 in0.0 mm 0.00 in0.0 mm
07:50 PM 70.5°F21.4°C 57.3°F14.1°C 63% Calm Calm 1.2 mph1.9 kmh 29.91 in1012.9 mb - 0.00 in0.0 mm 0.00 in0.0 mm
07:55 PM 70.2°F21.2°C 57.4°F14.1°C 64% 1.2 mph E1.9 kmh E 2.3 mph3.7 kmh 29.91 in1012.9 mb - 0.00 in0.0 mm 0.00 in0.0 mm
08:00 PM 69.8°F21.0°C 57.1°F13.9°C 64% 2.3 mph NE3.7 kmh NE 3.5 mph5.6 kmh 29.91 in1012.9 mb - 0.00 in0.0 mm 0.00 in0.0 mm
08:10 PM 70.0°F21.1°C 57.2°F14.0°C 64% Calm Calm 1.2 mph1.9 kmh 29.91 in1012.9 mb - 0.00 in0.0 mm 0.00 in0.0 mm
08:15 PM 69.8°F21.0°C 57.9°F14.4°C 66% 6.9 mph W11.1 kmh W 10.4 mph16.7 kmh 29.91 in1012.9 mb - 0.00 in0.0 mm 0.00 in0.0 mm
08:20 PM 68.9°F20.5°C 57.5°F14.2°C 67% 19.6 mph NW31.5 kmh NW 27.6 mph44.4 kmh 29.91 in1012.9 mb - 0.00 in0.0 mm 0.00 in0.0 mm
08:25 PM 68.2°F20.1°C 56.0°F13.3°C 65% 11.5 mph SW18.5 kmh SW 23.0 mph37.0 kmh 29.91 in1012.9 mb - 0.00 in0.0 mm 0.00 in0.0 mm
08:30 PM 66.9°F19.4°C 56.4°F13.6°C 69% 13.8 mph NW22.2 kmh NW 25.3 mph40.7 kmh 29.91 in1012.9 mb - 0.00 in0.0 mm 0.00 in0.0 mm
08:35 PM 65.0°F18.3°C 56.9°F13.8°C 75% 12.7 mph NW20.4 kmh NW 20.7 mph33.3 kmh 29.91 in1012.9 mb - 0.00 in0.0 mm 0.00 in0.0 mm
08:40 PM 63.5°F17.5°C 56.9°F13.8°C 79% 8.1 mph N13.0 kmh N 18.4 mph29.6 kmh 29.91 in1012.9 mb - 0.04 in1.0 mm 0.04 in1.0 mm
08:45 PM 62.3°F16.8°C 57.4°F14.1°C 84% 15.0 mph W24.1 kmh W 21.9 mph35.2 kmh 29.91 in1012.9 mb - 0.09 in2.3 mm 0.09 in2.3 mm
08:50 PM 61.4°F16.3°C 57.1°F13.9°C 86% 11.5 mph NW18.5 kmh NW 17.3 mph27.8 kmh 29.91 in1012.9 mb - 0.11 in2.8 mm 0.11 in2.8 mm
08:55 PM 61.0°F16.1°C 57.4°F14.1°C 88% 9.2 mph NW14.8 kmh NW 16.1 mph25.9 kmh 29.91 in1012.9 mb - 0.11 in2.8 mm 0.11 in2.8 mm
09:00 PM 60.6°F15.9°C 57.7°F14.3°C 90% 9.2 mph NW14.8 kmh NW 15.0 mph24.1 kmh 29.91 in1012.9 mb - 0.11 in2.8 mm 0.11 in2.8 mm
09:10 PM 60.1°F15.6°C 57.4°F14.1°C 91% 6.9 mph WNW11.1 kmh WNW 10.4 mph16.7 kmh 29.94 in1013.9 mb - 0.11 in2.8 mm 0.11 in2.8 mm
09:15 PM 59.9°F15.5°C 57.3°F14.1°C 91% 4.6 mph NW7.4 kmh NW 9.2 mph14.8 kmh 29.94 in1013.9 mb - 0.11 in2.8 mm 0.11 in2.8 mm
09:20 PM 59.6°F15.3°C 56.9°F13.8°C 91% 8.1 mph SW13.0 kmh SW 13.8 mph22.2 kmh 29.94 in1013.9 mb - 0.11 in2.8 mm 0.11 in2.8 mm
09:25 PM 59.4°F15.2°C 56.7°F13.7°C 91% 10.4 mph WNW16.7 kmh WNW 20.7 mph33.3 kmh 29.94 in1013.9 mb - 0.11 in2.8 mm 0.11 in2.8 mm
09:30 PM 59.4°F15.2°C 56.7°F13.7°C 91% 12.7 mph NW20.4 kmh NW 15.0 mph24.1 kmh 29.94 in1013.9 mb - 0.12 in3.0 mm 0.12 in3.0 mm
09:35 PM 59.4°F15.2°C 56.4°F13.6°C 90% 9.2 mph W14.8 kmh W 12.7 mph20.4 kmh 29.94 in1013.9 mb - 0.12 in3.0 mm 0.12 in3.0 mm
09:40 PM 59.4°F15.2°C 56.4°F13.6°C 90% 9.2 mph SW14.8 kmh SW 13.8 mph22.2 kmh 29.94 in1013.9 mb - 0.09 in2.3 mm 0.12 in3.0 mm
09:45 PM 59.4°F15.2°C 56.1°F13.4°C 89% 1.2 mph SE1.9 kmh SE 3.5 mph5.6 kmh 29.94 in1013.9 mb - 0.02 in0.5 mm 0.12 in3.0 mm
09:50 PM 59.4°F15.2°C 56.1°F13.4°C 89% 1.2 mph E1.9 kmh E 1.2 mph1.9 kmh 29.94 in1013.9 mb - 0.04 in1.0 mm 0.13 in3.3 mm
09:55 PM 59.2°F15.1°C 55.9°F13.3°C 89% 5.8 mph NW9.3 kmh NW 6.9 mph11.1 kmh 29.94 in1013.9 mb - 0.02 in0.5 mm 0.13 in3.3 mm
10:00 PM 59.0°F15.0°C 55.8°F13.2°C 89% 16.1 mph NW25.9 kmh NW 20.7 mph33.3 kmh 29.94 in1013.9 mb - 0.04 in1.0 mm 0.14 in3.6 mm
10:10 PM 59.5°F15.3°C 56.0°F13.3°C 88% 6.9 mph NNW11.1 kmh NNW 10.4 mph16.7 kmh 29.97 in1014.9 mb - 0.07 in1.8 mm 0.18 in4.6 mm
10:15 PM 59.5°F15.3°C 55.7°F13.2°C 87% 6.9 mph NW11.1 kmh NW 13.8 mph22.2 kmh 29.97 in1014.9 mb - 0.09 in2.3 mm 0.20 in5.1 mm
10:20 PM 59.5°F15.3°C 55.7°F13.2°C 87% 3.5 mph NW5.6 kmh NW 8.1 mph13.0 kmh 29.97 in1014.9 mb - 0.12 in3.0 mm 0.22 in5.6 mm
10:25 PM 59.7°F15.4°C 55.5°F13.1°C 86% 1.2 mph NW1.9 kmh NW 3.5 mph5.6 kmh 29.97 in1014.9 mb - 0.13 in3.3 mm 0.24 in6.1 mm
10:30 PM 59.7°F15.4°C 55.5°F13.1°C 86% 3.5 mph NW5.6 kmh NW 6.9 mph11.1 kmh 29.97 in1014.9 mb - 0.12 in3.0 mm 0.24 in6.1 mm
10:35 PM 59.7°F15.4°C 55.5°F13.1°C 86% 3.5 mph SW5.6 kmh SW 6.9 mph11.1 kmh 29.97 in1014.9 mb - 0.12 in3.0 mm 0.24 in6.1 mm
10:40 PM 59.5°F15.3°C 55.3°F12.9°C 86% 4.6 mph W7.4 kmh W 5.8 mph9.3 kmh 29.97 in1014.9 mb - 0.12 in3.0 mm 0.24 in6.1 mm
10:45 PM 59.0°F15.0°C 55.1°F12.8°C 87% 4.6 mph W7.4 kmh W 5.8 mph9.3 kmh 29.97 in1014.9 mb - 0.12 in3.0 mm 0.24 in6.1 mm
10:50 PM 58.6°F14.8°C 55.1°F12.8°C 88% 1.2 mph S1.9 kmh S 3.5 mph5.6 kmh 29.97 in1014.9 mb - 0.12 in3.0 mm 0.24 in6.1 mm
10:55 PM 58.5°F14.7°C 55.2°F12.9°C 89% 3.5 mph NW5.6 kmh NW 4.6 mph7.4 kmh 29.97 in1014.9 mb - 0.11 in2.8 mm 0.24 in6.1 mm
11:00 PM 58.3°F14.6°C 55.1°F12.8°C 89% 3.5 mph W5.6 kmh W 4.6 mph7.4 kmh 29.97 in1014.9 mb - 0.09 in2.3 mm 2.56 in65.0 mm
11:10 PM 57.9°F14.4°C 55.0°F12.8°C 90% 1.2 mph N1.9 kmh N 2.3 mph3.7 kmh 30.00 in1015.9 mb - 0.07 in1.8 mm 2.63 in66.8 mm
11:15 PM 57.8°F14.3°C 55.1°F12.8°C 91% 4.6 mph NE7.4 kmh NE 5.8 mph9.3 kmh 30.00 in1015.9 mb - 0.05 in1.3 mm 2.68 in68.1 mm
11:20 PM 57.9°F14.4°C 55.6°F13.1°C 92% 2.3 mph E3.7 kmh E 4.6 mph7.4 kmh 30.00 in1015.9 mb - 0.02 in0.5 mm 2.70 in68.6 mm
11:25 PM 57.9°F14.4°C 55.9°F13.3°C 93% 2.3 mph NE3.7 kmh NE 5.8 mph9.3 kmh 30.00 in1015.9 mb - 0.00 in0.0 mm 2.70 in68.6 mm
11:30 PM 57.9°F14.4°C 55.9°F13.3°C 93% Calm Calm 1.2 mph1.9 kmh 30.00 in1015.9 mb - 0.00 in0.0 mm 2.70 in68.6 mm
11:35 PM 57.9°F14.4°C 56.2°F13.4°C 94% 1.2 mph SE1.9 kmh SE 3.5 mph5.6 kmh 30.00 in1015.9 mb - 0.00 in0.0 mm 2.70 in68.6 mm
11:40 PM 57.9°F14.4°C 56.2°F13.4°C 94% Calm Calm 1.2 mph1.9 kmh 30.00 in1015.9 mb - 0.00 in0.0 mm 2.70 in68.6 mm
11:45 PM 57.7°F14.3°C 56.0°F13.3°C 94% 1.2 mph NW1.9 kmh NW 2.3 mph3.7 kmh 30.00 in1015.9 mb - 0.00 in0.0 mm 2.70 in68.6 mm
11:50 PM 57.6°F14.2°C 55.8°F13.2°C 94% 5.8 mph W9.3 kmh W 6.9 mph11.1 kmh 30.00 in1015.9 mb - 0.00 in0.0 mm 2.70 in68.6 mm
11:55 PM 57.4°F14.1°C 55.7°F13.2°C 94% 1.2 mph N1.9 kmh N 2.3 mph3.7 kmh 30.00 in1015.9 mb - 0.00 in0.0 mm 2.70 in68.6 mm